Terminal Aerodrome Forecast
Issued by NWS Cleveland, OH

Home | Current Version | Previous Version | Text Only | Print | Product List | Glossary On
Versions: 1 2 3 4 5 6 7 8 9 10 11 12 13 14 15 16 17 18
000
FTUS41 KCLE 300138 AAA
TAFCAK
TAF AMD
KCAK 300138Z 3002/3024 05009KT P6SM OVC009
     FM300600 08008KT 4SM BR OVC003
     FM301000 13008KT 4SM BR OVC003
     FM301400 17012KT 6SM HZ OVC003
     FM301600 20015G25KT P6SM OVC015
     FM301700 21015G25KT P6SM BKN250=

USA.gov is the U.S. government's official web portal to all federal, state and local government web resources and services.